Terminal Aerodrome Forecast
Issued by NWS Bismarck, ND

Home | Current Version | Previous Version | Graphics & Text | Print | Product List | Glossary On
Versions: 1 2 3 4 5 6 7 8 9 10 11 12 13 14 15 16 17 18 19 20
550
FTUS43 KBIS 031126
TAFISN
TAF
KISN 031126Z 0312/0412 VRB03KT P6SM BKN015
     FM031700 29008KT P6SM OVC020
     FM032100 27010KT P6SM OVC035
     FM041100 31004KT P6SM BKN050=

USA.gov is the U.S. government's official web portal to all federal, state and local government web resources and services.